Time,TemperatureF,DewpointF,PressureIn,WindDirection,WindDirectionDegrees,WindSpeedMPH,WindSpeedGustMPH,Humidity,HourlyPrecipIn,Conditions,Clouds,dailyrainin,SoftwareType,DateUTC
2013-07-16 00:01:00,64.3,63.4,30.25,SSE,163,0.0,0.0,97,0.00,,---,0.00,VWS V14.01,2013-07-16 04:01:00,
2013-07-16 00:02:00,64.3,63.4,30.25,SSE,165,0.0,0.0,97,0.00,,---,0.00,VWS V14.01,2013-07-16 04:02:00,
2013-07-16 00:04:00,64.2,63.3,30.25,SSE,163,0.0,0.0,97,0.00,,---,0.00,VWS V14.01,2013-07-16 04:04:00,
2013-07-16 00:09:00,64.1,63.2,30.25,SSE,163,0.0,0.0,97,0.00,,---,0.00,VWS V14.01,2013-07-16 04:09:00,
2013-07-16 00:14:00,64.0,63.1,30.25,SSE,165,0.0,0.0,97,0.00,,---,0.00,VWS V14.01,2013-07-16 04:14:00,
2013-07-16 00:19:00,63.9,63.0,30.25,SSE,165,0.0,0.0,97,0.00,,---,0.00,VWS V14.01,2013-07-16 04:19:00,
2013-07-16 00:24:00,64.0,63.4,30.25,SSE,163,0.0,0.0,98,0.00,,---,0.00,VWS V14.01,2013-07-16 04:24:00,
2013-07-16 00:29:00,64.2,63.6,30.25,SSE,165,0.0,0.0,98,0.00,,---,0.00,VWS V14.01,2013-07-16 04:29:00,
2013-07-16 00:34:00,64.2,63.6,30.25,SSE,165,0.0,0.0,98,0.00,,---,0.00,VWS V14.01,2013-07-16 04:34:00,
2013-07-16 00:39:00,64.2,63.6,30.26,SSE,163,0.0,0.0,98,0.00,,---,0.00,VWS V14.01,2013-07-16 04:39:00,
2013-07-16 00:44:00,64.3,63.7,30.25,SSE,162,0.0,0.0,98,0.00,,---,0.00,VWS V14.01,2013-07-16 04:44:00,
2013-07-16 00:49:00,64.3,63.7,30.25,SSE,155,0.0,0.0,98,0.00,,---,0.00,VWS V14.01,2013-07-16 04:49:00,
2013-07-16 00:54:00,64.3,63.7,30.25,SSE,155,0.0,0.0,98,0.00,,---,0.00,VWS V14.01,2013-07-16 04:54:00,
2013-07-16 00:59:00,64.3,63.7,30.25,SSE,155,0.0,1.0,98,0.00,,---,0.00,VWS V14.01,2013-07-16 04:59:00,
2013-07-16 01:04:00,64.2,63.6,30.25,ESE,122,0.0,1.0,98,0.00,,---,0.00,VWS V14.01,2013-07-16 05:04:00,
2013-07-16 01:09:00,64.3,63.7,30.25,ESE,122,0.0,1.0,98,0.00,,---,0.00,VWS V14.01,2013-07-16 05:09:00,
2013-07-16 01:14:00,64.3,63.7,30.25,ESE,123,0.0,1.0,98,0.00,,---,0.00,VWS V14.01,2013-07-16 05:14:00,
2013-07-16 01:19:00,64.0,63.4,30.25,ESE,122,0.0,1.0,98,0.00,,---,0.00,VWS V14.01,2013-07-16 05:19:00,
2013-07-16 01:24:00,63.8,63.2,30.25,ESE,122,0.0,1.0,98,0.00,,---,0.00,VWS V14.01,2013-07-16 05:24:00,
2013-07-16 01:29:00,63.8,63.2,30.25,ESE,122,0.0,1.0,98,0.00,,---,0.00,VWS V14.01,2013-07-16 05:29:00,
2013-07-16 01:34:00,64.0,63.7,30.25,ESE,122,0.0,0.0,99,0.00,,---,0.00,VWS V14.01,2013-07-16 05:34:00,
2013-07-16 01:39:00,64.2,63.9,30.25,ESE,122,0.0,0.0,99,0.00,,---,0.00,VWS V14.01,2013-07-16 05:39:00,
2013-07-16 01:44:00,64.5,64.2,30.25,ESE,122,0.0,1.0,99,0.00,,---,0.00,VWS V14.01,2013-07-16 05:44:00,
2013-07-16 01:49:00,64.7,64.4,30.25,SSW,204,0.0,1.0,99,0.00,,---,0.00,VWS V14.01,2013-07-16 05:49:00,
2013-07-16 01:54:00,64.7,64.4,30.25,SSW,204,0.0,1.0,99,0.00,,---,0.00,VWS V14.01,2013-07-16 05:54:00,
2013-07-16 01:59:00,64.6,64.3,30.25,SSW,204,0.0,1.0,99,0.00,,---,0.00,VWS V14.01,2013-07-16 05:59:00,
2013-07-16 02:04:00,64.5,63.9,30.25,SSW,204,0.0,0.0,98,0.00,,---,0.00,VWS V14.01,2013-07-16 06:04:00,
2013-07-16 02:09:00,64.5,64.2,30.25,SSW,204,0.0,0.0,99,0.00,,---,0.00,VWS V14.01,2013-07-16 06:09:00,
2013-07-16 02:14:00,64.5,64.2,30.25,SSW,204,0.0,0.0,99,0.00,,---,0.00,VWS V14.01,2013-07-16 06:14:00,
2013-07-16 02:19:00,64.3,64.0,30.25,SSW,204,0.0,0.0,99,0.00,,---,0.00,VWS V14.01,2013-07-16 06:19:00,
2013-07-16 02:24:00,64.1,63.8,30.25,SSW,204,0.0,0.0,99,0.00,,---,0.00,VWS V14.01,2013-07-16 06:24:00,
2013-07-16 02:29:00,63.9,63.3,30.25,SSW,204,0.0,0.0,98,0.00,,---,0.00,VWS V14.01,2013-07-16 06:29:00,
2013-07-16 02:34:00,63.6,63.0,30.25,SSW,204,0.0,0.0,98,0.00,,---,0.00,VWS V14.01,2013-07-16 06:34:00,
2013-07-16 02:39:00,63.6,63.3,30.25,SSW,204,0.0,0.0,99,0.00,,---,0.00,VWS V14.01,2013-07-16 06:39:00,
2013-07-16 02:44:00,63.7,63.4,30.25,SSW,204,0.0,0.0,99,0.00,,---,0.00,VWS V14.01,2013-07-16 06:44:00,
2013-07-16 02:49:00,63.7,63.4,30.25,SSW,204,0.0,0.0,99,0.00,,---,0.00,VWS V14.01,2013-07-16 06:49:00,
2013-07-16 02:54:00,63.9,63.6,30.25,SSW,204,0.0,0.0,99,0.00,,---,0.00,VWS V14.01,2013-07-16 06:54:00,
2013-07-16 02:59:00,63.8,63.5,30.25,SSW,204,0.0,0.0,99,0.00,,---,0.00,VWS V14.01,2013-07-16 06:59:00,
2013-07-16 03:04:00,63.7,63.4,30.25,SSW,204,0.0,0.0,99,0.00,,---,0.00,VWS V14.01,2013-07-16 07:04:00,
2013-07-16 03:09:00,63.4,63.1,30.25,SSW,204,0.0,0.0,99,0.00,,---,0.00,VWS V14.01,2013-07-16 07:09:00,
2013-07-16 03:14:00,63.2,62.9,30.25,SSW,204,0.0,0.0,99,0.00,,---,0.00,VWS V14.01,2013-07-16 07:14:00,
2013-07-16 03:19:00,63.3,63.0,30.25,SSW,204,0.0,0.0,99,0.00,,---,0.00,VWS V14.01,2013-07-16 07:19:00,
2013-07-16 03:24:00,63.5,63.5,30.25,SSW,204,0.0,0.0,100,0.00,,---,0.00,VWS V14.01,2013-07-16 07:24:00,
2013-07-16 03:29:00,63.4,63.1,30.25,SSW,204,0.0,0.0,99,0.00,,---,0.00,VWS V14.01,2013-07-16 07:29:00,
2013-07-16 03:34:00,62.9,62.6,30.25,SSW,204,0.0,0.0,99,0.00,,---,0.00,VWS V14.01,2013-07-16 07:34:00,
2013-07-16 03:39:00,62.6,62.3,30.25,SSW,204,0.0,0.0,99,0.00,,---,0.00,VWS V14.01,2013-07-16 07:39:00,
2013-07-16 03:44:00,62.3,62.0,30.25,SSW,204,0.0,0.0,99,0.00,,---,0.00,VWS V14.01,2013-07-16 07:44:00,
2013-07-16 03:49:00,62.2,61.9,30.25,SSW,204,0.0,0.0,99,0.00,,---,0.00,VWS V14.01,2013-07-16 07:49:00,
2013-07-16 03:54:00,62.3,62.0,30.25,SSW,204,0.0,0.0,99,0.00,,---,0.00,VWS V14.01,2013-07-16 07:54:00,
2013-07-16 03:59:00,62.2,61.9,30.25,SSW,204,0.0,0.0,99,0.00,,---,0.00,VWS V14.01,2013-07-16 07:59:00,
2013-07-16 04:04:00,62.2,61.9,30.25,SSW,204,0.0,0.0,99,0.00,,---,0.00,VWS V14.01,2013-07-16 08:04:00,
2013-07-16 04:09:00,62.2,62.2,30.25,SSW,204,0.0,0.0,100,0.00,,---,0.00,VWS V14.01,2013-07-16 08:09:00,
2013-07-16 04:14:00,62.2,61.9,30.25,SSW,204,0.0,0.0,99,0.00,,---,0.00,VWS V14.01,2013-07-16 08:14:00,
2013-07-16 04:19:00,62.2,62.2,30.25,SSW,204,0.0,0.0,100,0.00,,---,0.00,VWS V14.01,2013-07-16 08:19:00,
2013-07-16 04:24:00,62.0,61.7,30.25,SSW,204,0.0,0.0,99,0.00,,---,0.00,VWS V14.01,2013-07-16 08:24:00,
2013-07-16 04:29:00,62.2,62.2,30.24,SSW,204,0.0,0.0,100,0.00,,---,0.00,VWS V14.01,2013-07-16 08:29:00,
2013-07-16 04:34:00,62.1,61.8,30.24,SSW,204,0.0,0.0,99,0.00,,---,0.00,VWS V14.01,2013-07-16 08:34:00,
2013-07-16 04:39:00,62.1,62.1,30.25,SSW,204,0.0,0.0,100,0.00,,---,0.00,VWS V14.01,2013-07-16 08:39:00,
2013-07-16 04:44:00,62.2,62.2,30.25,SSW,204,0.0,0.0,100,0.00,,---,0.00,VWS V14.01,2013-07-16 08:44:00,
2013-07-16 04:49:00,62.2,62.2,30.25,SSW,204,0.0,0.0,100,0.00,,---,0.00,VWS V14.01,2013-07-16 08:49:00,
2013-07-16 04:54:00,62.2,62.2,30.25,SSW,204,0.0,0.0,100,0.00,,---,0.00,VWS V14.01,2013-07-16 08:54:00,
2013-07-16 04:59:00,62.2,62.2,30.25,SSW,204,0.0,0.0,100,0.00,,---,0.00,VWS V14.01,2013-07-16 08:59:00,
2013-07-16 05:04:00,62.1,62.1,30.25,SSW,204,0.0,0.0,100,0.00,,---,0.00,VWS V14.01,2013-07-16 09:04:00,
2013-07-16 05:09:00,62.1,62.1,30.25,SSW,204,0.0,0.0,100,0.00,,---,0.00,VWS V14.01,2013-07-16 09:09:00,
2013-07-16 05:14:00,62.0,62.0,30.25,SSW,204,0.0,0.0,100,0.00,,---,0.00,VWS V14.01,2013-07-16 09:14:00,
2013-07-16 05:19:00,61.7,61.4,30.25,SSW,204,0.0,0.0,99,0.00,,---,0.00,VWS V14.01,2013-07-16 09:19:00,
2013-07-16 05:24:00,61.5,61.2,30.25,SSW,204,0.0,1.0,99,0.00,,---,0.00,VWS V14.01,2013-07-16 09:24:00,
2013-07-16 05:30:00,61.2,60.9,30.25,SSW,204,0.0,0.0,99,0.00,,---,0.00,VWS V14.01,2013-07-16 09:30:00,
2013-07-16 05:35:00,61.1,61.1,30.25,SSW,204,0.0,0.0,100,0.00,,---,0.00,VWS V14.01,2013-07-16 09:35:00,
2013-07-16 05:40:00,61.2,61.2,30.26,SSW,204,0.0,0.0,100,0.00,,---,0.00,VWS V14.01,2013-07-16 09:40:00,
2013-07-16 05:45:00,61.4,61.4,30.26,SSW,204,0.0,0.0,100,0.00,,---,0.00,VWS V14.01,2013-07-16 09:45:00,
2013-07-16 05:50:00,61.5,61.5,30.26,SSW,204,0.0,0.0,100,0.00,,---,0.00,VWS V14.01,2013-07-16 09:50:00,
2013-07-16 05:55:00,61.6,61.6,30.26,SSW,204,0.0,0.0,100,0.00,,---,0.00,VWS V14.01,2013-07-16 09:55:00,
2013-07-16 06:00:00,61.6,61.6,30.26,SSW,204,0.0,0.0,100,0.00,,---,0.00,VWS V14.01,2013-07-16 10:00:00,
2013-07-16 06:05:00,61.6,61.6,30.26,SSW,204,0.0,0.0,100,0.00,,---,0.00,VWS V14.01,2013-07-16 10:05:00,
2013-07-16 06:10:00,61.6,61.6,30.27,SSW,204,0.0,0.0,100,0.00,,---,0.00,VWS V14.01,2013-07-16 10:10:00,
2013-07-16 06:15:00,61.5,61.5,30.27,SSW,204,0.0,0.0,100,0.00,,---,0.00,VWS V14.01,2013-07-16 10:15:00,
2013-07-16 06:20:00,61.5,61.5,30.27,SSW,204,0.0,0.0,100,0.00,,---,0.00,VWS V14.01,2013-07-16 10:20:00,
2013-07-16 06:25:00,61.3,61.3,30.27,SSW,204,0.0,0.0,100,0.00,,---,0.00,VWS V14.01,2013-07-16 10:25:00,
2013-07-16 06:30:00,61.2,61.2,30.27,SSW,198,0.0,0.0,100,0.00,,---,0.00,VWS V14.01,2013-07-16 10:30:00,
2013-07-16 06:35:00,61.2,61.2,30.27,SSW,198,0.0,0.0,100,0.00,,---,0.00,VWS V14.01,2013-07-16 10:35:00,
2013-07-16 06:40:00,61.4,61.4,30.27,SSW,198,0.0,0.0,100,0.00,,---,0.00,VWS V14.01,2013-07-16 10:40:00,
2013-07-16 06:45:00,61.4,61.4,30.27,SSW,198,0.0,0.0,100,0.00,,---,0.00,VWS V14.01,2013-07-16 10:45:00,
2013-07-16 06:50:00,61.6,61.6,30.27,SSW,198,0.0,0.0,100,0.00,,---,0.00,VWS V14.01,2013-07-16 10:50:00,
2013-07-16 06:55:00,61.6,61.6,30.27,SSW,198,0.0,0.0,100,0.00,,---,0.00,VWS V14.01,2013-07-16 10:55:00,
2013-07-16 07:00:00,61.8,61.8,30.27,SSW,198,0.0,0.0,100,0.00,,---,0.00,VWS V14.01,2013-07-16 11:00:00,
2013-07-16 07:05:00,61.8,61.8,30.27,SSW,198,0.0,0.0,100,0.00,,---,0.00,VWS V14.01,2013-07-16 11:05:00,
2013-07-16 07:10:00,61.9,61.9,30.27,SSW,198,0.0,0.0,100,0.00,,---,0.00,VWS V14.01,2013-07-16 11:10:00,
2013-07-16 07:15:00,62.1,62.1,30.27,SSW,198,0.0,0.0,100,0.00,,---,0.00,VWS V14.01,2013-07-16 11:15:00,
2013-07-16 07:20:00,62.3,62.3,30.27,SSW,198,0.0,0.0,100,0.00,,---,0.00,VWS V14.01,2013-07-16 11:20:00,
2013-07-16 07:25:00,62.5,62.5,30.27,SSW,198,0.0,0.0,100,0.00,,---,0.00,VWS V14.01,2013-07-16 11:25:00,
2013-07-16 07:30:00,62.8,62.8,30.27,SSW,198,0.0,0.0,100,0.00,,---,0.00,VWS V14.01,2013-07-16 11:30:00,
2013-07-16 07:35:00,63.1,63.1,30.27,SSW,198,0.0,0.0,100,0.00,,---,0.00,VWS V14.01,2013-07-16 11:35:00,
2013-07-16 07:40:00,63.4,63.4,30.28,SSW,198,0.0,0.0,100,0.00,,---,0.00,VWS V14.01,2013-07-16 11:40:00,
2013-07-16 07:45:00,63.9,63.9,30.28,SSW,198,0.0,0.0,100,0.00,,---,0.00,VWS V14.01,2013-07-16 11:45:00,
2013-07-16 07:50:00,64.3,64.3,30.28,SSW,198,0.0,1.0,100,0.00,,---,0.00,VWS V14.01,2013-07-16 11:50:00,
2013-07-16 07:55:00,65.2,65.2,30.28,SSW,197,0.0,1.0,100,0.00,,---,0.00,VWS V14.01,2013-07-16 11:55:00,
2013-07-16 08:00:00,66.1,66.1,30.28,SSW,197,0.0,0.0,100,0.00,,---,0.00,VWS V14.01,2013-07-16 12:00:00,
2013-07-16 08:05:00,66.9,66.9,30.28,South,186,1.0,1.0,100,0.00,,---,0.00,VWS V14.01,2013-07-16 12:05:00,
2013-07-16 08:10:00,67.7,67.7,30.28,South,186,0.0,1.0,100,0.00,,---,0.00,VWS V14.01,2013-07-16 12:10:00,
2013-07-16 08:15:00,68.7,68.7,30.28,South,172,0.0,1.0,100,0.00,,---,0.00,VWS V14.01,2013-07-16 12:15:00,
2013-07-16 08:20:00,69.8,69.8,30.28,South,172,0.0,1.0,100,0.00,,---,0.00,VWS V14.01,2013-07-16 12:20:00,
2013-07-16 08:25:00,71.3,71.0,30.28,South,172,0.0,1.0,99,0.00,,---,0.00,VWS V14.01,2013-07-16 12:25:00,
2013-07-16 08:30:00,71.9,70.1,30.28,WSW,245,1.0,2.0,94,0.00,,---,0.00,VWS V14.01,2013-07-16 12:30:00,
2013-07-16 08:35:00,72.5,69.4,30.28,WNW,285,0.0,3.0,90,0.00,,---,0.00,VWS V14.01,2013-07-16 12:35:00,
2013-07-16 08:40:00,73.3,68.2,30.28,SW,227,1.0,3.0,84,0.00,,---,0.00,VWS V14.01,2013-07-16 12:40:00,
2013-07-16 08:45:00,73.9,68.1,30.28,SW,233,0.0,3.0,82,0.00,,---,0.00,VWS V14.01,2013-07-16 12:45:00,
2013-07-16 08:50:00,74.6,68.4,30.28,WSW,238,3.0,3.0,81,0.00,,---,0.00,VWS V14.01,2013-07-16 12:50:00,
2013-07-16 08:55:00,75.2,69.0,30.29,WNW,283,0.0,3.0,81,0.00,,---,0.00,VWS V14.01,2013-07-16 12:55:00,
2013-07-16 09:00:00,75.6,69.0,30.29,WSW,256,1.0,2.0,80,0.00,,---,0.00,VWS V14.01,2013-07-16 13:00:00,
2013-07-16 09:05:00,75.8,68.5,30.29,SW,224,0.0,3.0,78,0.00,,---,0.00,VWS V14.01,2013-07-16 13:05:00,
2013-07-16 09:10:00,76.4,69.4,30.29,WNW,284,0.0,3.0,79,0.00,,---,0.00,VWS V14.01,2013-07-16 13:10:00,
2013-07-16 09:11:00,76.4,69.4,30.29,WNW,283,0.0,3.0,79,0.00,,---,0.00,VWS V14.01,2013-07-16 13:11:00,
2013-07-16 09:16:00,77.0,69.2,30.29,WNW,287,1.0,3.0,77,0.00,,---,0.00,VWS V14.01,2013-07-16 13:16:00,
2013-07-16 09:21:00,77.2,69.4,30.29,West,281,2.0,4.0,77,0.00,,---,0.00,VWS V14.01,2013-07-16 13:21:00,
2013-07-16 09:26:00,77.1,69.0,30.29,SW,233,2.0,4.0,76,0.00,,---,0.00,VWS V14.01,2013-07-16 13:26:00,
2013-07-16 09:31:00,77.5,69.3,30.29,WSW,256,2.0,3.0,76,0.00,,---,0.00,VWS V14.01,2013-07-16 13:31:00,
2013-07-16 09:36:00,77.7,69.9,30.29,NNE,29,2.0,3.0,77,0.00,,---,0.00,VWS V14.01,2013-07-16 13:36:00,
2013-07-16 09:41:00,78.0,69.8,30.29,North,359,3.0,4.0,76,0.00,,---,0.00,VWS V14.01,2013-07-16 13:41:00,
2013-07-16 09:46:00,78.4,69.8,30.29,WNW,283,1.0,4.0,75,0.00,,---,0.00,VWS V14.01,2013-07-16 13:46:00,
2013-07-16 09:51:00,77.9,68.9,30.29,West,273,1.0,6.0,74,0.00,,---,0.00,VWS V14.01,2013-07-16 13:51:00,
2013-07-16 09:56:00,77.9,70.1,30.29,WSW,243,1.0,6.0,77,0.00,,---,0.00,VWS V14.01,2013-07-16 13:56:00,
2013-07-16 10:01:00,77.9,69.7,30.28,North,360,2.0,3.0,76,0.00,,---,0.00,VWS V14.01,2013-07-16 14:01:00,
2013-07-16 10:06:00,78.1,69.5,30.28,WNW,285,1.0,3.0,75,0.00,,---,0.00,VWS V14.01,2013-07-16 14:06:00,
2013-07-16 10:11:00,78.1,69.5,30.29,West,277,1.0,3.0,75,0.00,,---,0.00,VWS V14.01,2013-07-16 14:11:00,
2013-07-16 10:16:00,78.5,69.9,30.28,NNE,32,0.0,3.0,75,0.00,,---,0.00,VWS V14.01,2013-07-16 14:16:00,
2013-07-16 10:21:00,78.8,69.4,30.28,WNW,302,2.0,4.0,73,0.00,,---,0.00,VWS V14.01,2013-07-16 14:21:00,
2013-07-16 10:26:00,78.9,70.3,30.28,WNW,289,2.0,4.0,75,0.00,,---,0.00,VWS V14.01,2013-07-16 14:26:00,
2013-07-16 10:31:00,79.5,70.5,30.28,NE,46,1.0,3.0,74,0.00,,---,0.00,VWS V14.01,2013-07-16 14:31:00,
2013-07-16 10:36:00,79.8,70.0,30.28,North,354,4.0,6.0,72,0.00,,---,0.00,VWS V14.01,2013-07-16 14:36:00,
2013-07-16 10:41:00,79.7,69.9,30.28,SW,232,4.0,6.0,72,0.00,,---,0.00,VWS V14.01,2013-07-16 14:41:00,
2013-07-16 10:46:00,79.8,70.8,30.28,West,274,1.0,6.0,74,0.00,,---,0.00,VWS V14.01,2013-07-16 14:46:00,
2013-07-16 10:52:00,80.1,70.3,30.28,WNW,283,2.0,6.0,72,0.00,,---,0.00,VWS V14.01,2013-07-16 14:52:00,
2013-07-16 10:57:00,80.0,69.8,30.28,WNW,301,1.0,7.0,71,0.00,,---,0.00,VWS V14.01,2013-07-16 14:57:00,
2013-07-16 11:02:00,80.2,70.4,30.28,West,280,1.0,7.0,72,0.00,,---,0.00,VWS V14.01,2013-07-16 15:02:00,
2013-07-16 11:07:00,80.7,71.2,30.27,WNW,283,2.0,7.0,73,0.00,,---,0.00,VWS V14.01,2013-07-16 15:07:00,
2013-07-16 11:12:00,80.8,70.1,30.28,WNW,291,3.0,7.0,70,0.00,,---,0.00,VWS V14.01,2013-07-16 15:12:00,
2013-07-16 11:17:00,80.8,71.3,30.27,WNW,297,2.0,7.0,73,0.00,,---,0.00,VWS V14.01,2013-07-16 15:17:00,
2013-07-16 11:22:00,80.0,68.9,30.28,WNW,285,1.0,7.0,69,0.00,,---,0.00,VWS V14.01,2013-07-16 15:22:00,
2013-07-16 11:27:00,79.4,69.2,30.27,NW,319,4.0,7.0,71,0.00,,---,0.00,VWS V14.01,2013-07-16 15:27:00,
2013-07-16 11:32:00,79.0,69.2,30.28,North,356,3.0,6.0,72,0.00,,---,0.00,VWS V14.01,2013-07-16 15:32:00,
2013-07-16 11:37:00,78.9,68.7,30.28,North,356,3.0,6.0,71,0.00,,---,0.00,VWS V14.01,2013-07-16 15:37:00,
2013-07-16 11:42:00,79.3,69.1,30.27,NW,307,3.0,6.0,71,0.00,,---,0.00,VWS V14.01,2013-07-16 15:42:00,
2013-07-16 11:47:00,79.4,68.3,30.27,NNE,33,2.0,7.0,69,0.00,,---,0.00,VWS V14.01,2013-07-16 15:47:00,
2013-07-16 11:52:00,79.9,70.1,30.27,West,261,0.0,7.0,72,0.00,,---,0.00,VWS V14.01,2013-07-16 15:52:00,
2013-07-16 11:57:00,80.3,68.3,30.27,NNE,33,5.0,7.0,67,0.00,,---,0.00,VWS V14.01,2013-07-16 15:57:00,
2013-07-16 12:02:00,80.6,69.5,30.27,North,4,2.0,8.0,69,0.00,,---,0.00,VWS V14.01,2013-07-16 16:02:00,
2013-07-16 12:07:00,80.9,69.8,30.27,North,8,2.0,10.0,69,0.00,,---,0.00,VWS V14.01,2013-07-16 16:07:00,
2013-07-16 12:12:00,80.9,69.4,30.26,WNW,302,2.0,10.0,68,0.00,,---,0.00,VWS V14.01,2013-07-16 16:12:00,
2013-07-16 12:17:00,81.4,70.7,30.26,WNW,298,2.0,10.0,70,0.00,,---,0.00,VWS V14.01,2013-07-16 16:17:00,
2013-07-16 12:22:00,81.6,68.7,30.26,NNE,30,2.0,10.0,65,0.00,,---,0.00,VWS V14.01,2013-07-16 16:22:00,
2013-07-16 12:27:00,81.6,69.2,30.26,WNW,293,0.0,10.0,66,0.00,,---,0.00,VWS V14.01,2013-07-16 16:27:00,
2013-07-16 12:32:00,81.7,69.7,30.26,NW,321,3.0,7.0,67,0.00,,---,0.00,VWS V14.01,2013-07-16 16:32:00,
2013-07-16 12:37:00,81.6,68.7,30.26,NNW,343,2.0,7.0,65,0.00,,---,0.00,VWS V14.01,2013-07-16 16:37:00,
2013-07-16 12:42:00,81.3,69.3,30.26,North,354,1.0,8.0,67,0.00,,---,0.00,VWS V14.01,2013-07-16 16:42:00,
2013-07-16 12:47:00,81.6,68.2,30.26,NNW,346,4.0,8.0,64,0.00,,---,0.00,VWS V14.01,2013-07-16 16:47:00,
2013-07-16 12:52:00,81.3,67.1,30.26,West,271,1.0,8.0,62,0.00,,---,0.00,VWS V14.01,2013-07-16 16:52:00,
2013-07-16 12:57:00,81.6,68.2,30.26,West,281,2.0,8.0,64,0.00,,---,0.00,VWS V14.01,2013-07-16 16:57:00,
2013-07-16 13:03:00,81.8,69.3,30.26,WNW,302,4.0,7.0,66,0.00,,---,0.00,VWS V14.01,2013-07-16 17:03:00,
2013-07-16 13:08:00,82.0,68.2,30.26,NW,316,2.0,7.0,63,0.00,,---,0.00,VWS V14.01,2013-07-16 17:08:00,
2013-07-16 13:13:00,82.2,71.4,30.26,NNW,330,1.0,7.0,70,0.00,,---,0.00,VWS V14.01,2013-07-16 17:13:00,
2013-07-16 13:18:00,82.4,69.0,30.26,WNW,293,2.0,7.0,64,0.00,,---,0.00,VWS V14.01,2013-07-16 17:18:00,
2013-07-16 13:23:00,82.7,67.4,30.25,WNW,298,3.0,8.0,60,0.00,,---,0.00,VWS V14.01,2013-07-16 17:23:00,
2013-07-16 13:28:00,82.8,70.3,30.25,North,6,8.0,8.0,66,0.00,,---,0.00,VWS V14.01,2013-07-16 17:28:00,
2013-07-16 13:33:00,82.0,69.1,30.25,ENE,64,4.0,6.0,65,0.00,,---,0.00,VWS V14.01,2013-07-16 17:33:00,
2013-07-16 13:38:00,81.8,69.3,30.25,NW,318,1.0,6.0,66,0.00,,---,0.00,VWS V14.01,2013-07-16 17:38:00,
2013-07-16 13:43:00,82.0,68.6,30.25,SW,224,2.0,7.0,64,0.00,,---,0.00,VWS V14.01,2013-07-16 17:43:00,
2013-07-16 13:48:00,82.5,67.7,30.25,WNW,294,2.0,7.0,61,0.00,,---,0.00,VWS V14.01,2013-07-16 17:48:00,
2013-07-16 13:53:00,81.7,67.4,30.25,WNW,286,1.0,7.0,62,0.00,,---,0.00,VWS V14.01,2013-07-16 17:53:00,
2013-07-16 13:58:00,81.3,67.5,30.25,West,260,3.0,7.0,63,0.00,,---,0.00,VWS V14.01,2013-07-16 17:58:00,
2013-07-16 14:03:00,81.9,66.2,30.24,North,360,1.0,4.0,59,0.00,,---,0.00,VWS V14.01,2013-07-16 18:03:00,
2013-07-16 14:08:00,82.7,68.8,30.24,NNW,348,5.0,5.0,63,0.00,,---,0.00,VWS V14.01,2013-07-16 18:08:00,
2013-07-16 14:13:00,82.7,65.9,30.24,SW,221,2.0,9.0,57,0.00,,---,0.00,VWS V14.01,2013-07-16 18:13:00,
2013-07-16 14:18:00,83.3,66.5,30.23,West,259,2.0,9.0,57,0.00,,---,0.00,VWS V14.01,2013-07-16 18:18:00,
2013-07-16 14:23:00,83.3,68.0,30.23,West,270,0.0,9.0,60,0.00,,---,0.00,VWS V14.01,2013-07-16 18:23:00,
2013-07-16 14:28:00,83.5,65.7,30.23,SW,226,2.0,9.0,55,0.00,,---,0.00,VWS V14.01,2013-07-16 18:28:00,
2013-07-16 14:33:00,83.7,66.9,30.23,SE,142,1.0,5.0,57,0.00,,---,0.00,VWS V14.01,2013-07-16 18:33:00,
2013-07-16 14:38:00,84.2,69.3,30.23,West,281,2.0,5.0,61,0.00,,---,0.00,VWS V14.01,2013-07-16 18:38:00,
2013-07-16 14:43:00,84.5,69.1,30.23,WNW,298,0.0,5.0,60,0.00,,---,0.00,VWS V14.01,2013-07-16 18:43:00,
2013-07-16 14:48:00,83.9,67.6,30.23,WNW,290,0.0,8.0,58,0.00,,---,0.00,VWS V14.01,2013-07-16 18:48:00,
2013-07-16 14:53:00,83.9,66.5,30.23,SW,233,4.0,8.0,56,0.00,,---,0.00,VWS V14.01,2013-07-16 18:53:00,
2013-07-16 14:58:00,83.9,67.6,30.23,WNW,288,2.0,8.0,58,0.00,,---,0.00,VWS V14.01,2013-07-16 18:58:00,
2013-07-16 15:03:00,83.9,67.6,30.22,North,11,1.0,5.0,58,0.00,,---,0.00,VWS V14.01,2013-07-16 19:03:00,
2013-07-16 15:08:00,83.7,67.4,30.22,NE,54,1.0,5.0,58,0.00,,---,0.00,VWS V14.01,2013-07-16 19:08:00,
2013-07-16 15:13:00,83.4,69.5,30.22,NE,55,1.0,5.0,63,0.00,,---,0.00,VWS V14.01,2013-07-16 19:13:00,
2013-07-16 15:18:00,83.6,68.3,30.22,West,280,5.0,6.0,60,0.00,,---,0.00,VWS V14.01,2013-07-16 19:18:00,
2013-07-16 15:23:00,83.2,67.4,30.22,WNW,301,2.0,6.0,59,0.00,,---,0.00,VWS V14.01,2013-07-16 19:23:00,
2013-07-16 15:28:00,83.3,68.9,30.22,North,349,0.0,6.0,62,0.00,,---,0.00,VWS V14.01,2013-07-16 19:28:00,
2013-07-16 15:33:00,83.7,68.3,30.22,NE,40,4.0,6.0,60,0.00,,---,0.00,VWS V14.01,2013-07-16 19:33:00,
2013-07-16 15:38:00,83.5,67.7,30.22,WNW,284,2.0,6.0,59,0.00,,---,0.00,VWS V14.01,2013-07-16 19:38:00,
2013-07-16 15:43:00,83.6,69.2,30.22,West,272,1.0,6.0,62,0.00,,---,0.00,VWS V14.01,2013-07-16 19:43:00,
2013-07-16 15:48:00,83.8,65.4,30.22,WSW,257,3.0,6.0,54,0.00,,---,0.00,VWS V14.01,2013-07-16 19:48:00,
2013-07-16 15:53:00,83.7,65.3,30.22,NW,325,2.0,6.0,54,0.00,,---,0.00,VWS V14.01,2013-07-16 19:53:00,
2013-07-16 15:58:00,83.8,67.5,30.22,SW,222,1.0,6.0,58,0.00,,---,0.00,VWS V14.01,2013-07-16 19:58:00,
2013-07-16 16:03:00,84.2,67.8,30.22,West,281,2.0,4.0,58,0.00,,---,0.00,VWS V14.01,2013-07-16 20:03:00,
2013-07-16 16:08:00,84.2,68.3,30.22,West,267,2.0,6.0,59,0.00,,---,0.00,VWS V14.01,2013-07-16 20:08:00,
2013-07-16 16:13:00,84.0,67.1,30.22,NE,38,2.0,6.0,57,0.00,,---,0.00,VWS V14.01,2013-07-16 20:13:00,
2013-07-16 16:18:00,84.1,67.2,30.21,WSW,255,3.0,6.0,57,0.00,,---,0.00,VWS V14.01,2013-07-16 20:18:00,
2013-07-16 16:23:00,84.5,67.6,30.21,NNW,330,5.0,7.0,57,0.00,,---,0.00,VWS V14.01,2013-07-16 20:23:00,
2013-07-16 16:28:00,84.4,67.0,30.21,WNW,286,2.0,7.0,56,0.00,,---,0.00,VWS V14.01,2013-07-16 20:28:00,
2013-07-16 16:33:00,84.4,67.5,30.21,NE,40,1.0,5.0,57,0.00,,---,0.00,VWS V14.01,2013-07-16 20:33:00,
2013-07-16 16:38:00,84.4,67.5,30.21,WNW,290,5.0,6.0,57,0.00,,---,0.00,VWS V14.01,2013-07-16 20:38:00,
2013-07-16 16:43:00,84.3,68.4,30.21,SW,225,0.0,6.0,59,0.00,,---,0.00,VWS V14.01,2013-07-16 20:43:00,
2013-07-16 16:48:00,84.7,69.3,30.20,WNW,284,1.0,6.0,60,0.00,,---,0.00,VWS V14.01,2013-07-16 20:48:00,
2013-07-16 16:53:00,84.6,67.2,30.20,SW,217,4.0,6.0,56,0.00,,---,0.00,VWS V14.01,2013-07-16 20:53:00,
2013-07-16 16:58:00,84.1,65.1,30.20,WSW,251,0.0,7.0,53,0.00,,---,0.00,VWS V14.01,2013-07-16 20:58:00,
2013-07-16 17:03:00,84.4,66.5,30.20,SSE,165,0.0,4.0,55,0.00,,---,0.00,VWS V14.01,2013-07-16 21:03:00,
2013-07-16 17:08:00,84.6,66.7,30.20,WNW,285,3.0,4.0,55,0.00,,---,0.00,VWS V14.01,2013-07-16 21:08:00,
2013-07-16 17:13:00,84.0,67.1,30.20,WNW,290,2.0,7.0,57,0.00,,---,0.00,VWS V14.01,2013-07-16 21:13:00,
2013-07-16 17:18:00,83.7,67.4,30.20,West,262,1.0,7.0,58,0.00,,---,0.00,VWS V14.01,2013-07-16 21:18:00,
2013-07-16 17:23:00,84.0,68.6,30.20,ENE,61,2.0,7.0,60,0.00,,---,0.00,VWS V14.01,2013-07-16 21:23:00,
2013-07-16 17:28:00,84.1,66.2,30.20,WNW,284,3.0,7.0,55,0.00,,---,0.00,VWS V14.01,2013-07-16 21:28:00,
2013-07-16 17:33:00,84.0,67.1,30.21,WNW,291,0.0,4.0,57,0.00,,---,0.00,VWS V14.01,2013-07-16 21:33:00,
2013-07-16 17:38:00,84.3,68.4,30.21,NW,307,2.0,5.0,59,0.00,,---,0.00,VWS V14.01,2013-07-16 21:38:00,
2013-07-16 17:43:00,83.0,68.2,30.21,SW,214,1.0,6.0,61,0.00,,---,0.00,VWS V14.01,2013-07-16 21:43:00,
2013-07-16 17:49:00,83.1,67.8,30.21,West,281,5.0,6.0,60,0.00,,---,0.00,VWS V14.01,2013-07-16 21:49:00,
2013-07-16 17:54:00,83.2,68.4,30.20,WSW,246,2.0,7.0,61,0.00,,---,0.00,VWS V14.01,2013-07-16 21:54:00,
2013-07-16 17:59:00,83.0,69.1,30.20,WNW,303,2.0,7.0,63,0.00,,---,0.00,VWS V14.01,2013-07-16 21:59:00,
2013-07-16 18:04:00,83.3,68.9,30.20,WNW,293,1.0,4.0,62,0.00,,---,0.00,VWS V14.01,2013-07-16 22:04:00,
2013-07-16 18:09:00,83.1,68.7,30.20,West,267,0.0,4.0,62,0.00,,---,0.00,VWS V14.01,2013-07-16 22:09:00,
2013-07-16 18:14:00,82.7,69.3,30.19,WSW,252,2.0,5.0,64,0.00,,---,0.00,VWS V14.01,2013-07-16 22:14:00,
2013-07-16 18:19:00,82.3,68.5,30.19,West,281,2.0,5.0,63,0.00,,---,0.00,VWS V14.01,2013-07-16 22:19:00,
2013-07-16 18:24:00,82.0,69.5,30.19,NNW,327,1.0,5.0,66,0.00,,---,0.00,VWS V14.01,2013-07-16 22:24:00,
2013-07-16 18:29:00,81.6,68.7,30.20,West,278,0.0,5.0,65,0.00,,---,0.00,VWS V14.01,2013-07-16 22:29:00,
2013-07-16 18:34:00,81.1,69.1,30.20,ENE,58,0.0,5.0,67,0.00,,---,0.00,VWS V14.01,2013-07-16 22:34:00,
2013-07-16 18:39:00,80.5,68.5,30.21,NNW,336,0.0,5.0,67,0.00,,---,0.00,VWS V14.01,2013-07-16 22:39:00,
2013-07-16 18:44:00,80.0,68.9,30.21,North,1,0.0,5.0,69,0.00,,---,0.00,VWS V14.01,2013-07-16 22:44:00,
2013-07-16 18:49:00,79.6,68.5,30.21,North,357,0.0,5.0,69,0.00,,---,0.00,VWS V14.01,2013-07-16 22:49:00,
2013-07-16 18:54:00,79.1,68.1,30.21,NW,315,2.0,5.0,69,0.00,,---,0.00,VWS V14.01,2013-07-16 22:54:00,
2013-07-16 18:59:00,78.7,68.1,30.21,WNW,289,0.0,5.0,70,0.00,,---,0.00,VWS V14.01,2013-07-16 22:59:00,
2013-07-16 19:04:00,78.4,67.8,30.21,NW,323,2.0,5.0,70,0.00,,---,0.00,VWS V14.01,2013-07-16 23:04:00,
2013-07-16 19:09:00,78.1,67.5,30.21,NNW,333,1.0,5.0,70,0.00,,---,0.00,VWS V14.01,2013-07-16 23:09:00,
2013-07-16 19:14:00,77.9,68.2,30.21,North,356,0.0,5.0,72,0.00,,---,0.00,VWS V14.01,2013-07-16 23:14:00,
2013-07-16 19:19:00,77.6,67.9,30.22,NW,311,0.0,5.0,72,0.00,,---,0.00,VWS V14.01,2013-07-16 23:19:00,
2013-07-16 19:24:00,77.4,68.1,30.22,NNW,335,1.0,5.0,73,0.00,,---,0.00,VWS V14.01,2013-07-16 23:24:00,
2013-07-16 19:29:00,77.1,67.8,30.22,North,4,0.0,5.0,73,0.00,,---,0.00,VWS V14.01,2013-07-16 23:29:00,
2013-07-16 19:34:00,76.9,67.6,30.21,NNW,333,1.0,3.0,73,0.00,,---,0.00,VWS V14.01,2013-07-16 23:34:00,
2013-07-16 19:39:00,76.8,68.7,30.21,West,278,0.0,3.0,76,0.00,,---,0.00,VWS V14.01,2013-07-16 23:39:00,
2013-07-16 19:44:00,76.5,68.0,30.21,NNW,333,0.0,3.0,75,0.00,,---,0.00,VWS V14.01,2013-07-16 23:44:00,
2013-07-16 19:49:00,76.2,67.7,30.21,NNE,14,1.0,3.0,75,0.00,,---,0.00,VWS V14.01,2013-07-16 23:49:00,
2013-07-16 19:54:00,76.1,68.4,30.22,NE,46,0.0,3.0,77,0.00,,---,0.00,VWS V14.01,2013-07-16 23:54:00,
2013-07-16 19:59:00,75.7,68.4,30.23,NE,44,0.0,3.0,78,0.00,,---,0.00,VWS V14.01,2013-07-16 23:59:00,
2013-07-16 20:04:00,75.4,68.4,30.23,NNE,30,0.0,1.0,79,0.00,,---,0.00,VWS V14.01,2013-07-17 00:04:00,
2013-07-16 20:09:00,75.3,68.0,30.23,NNW,330,0.0,1.0,78,0.00,,---,0.00,VWS V14.01,2013-07-17 00:09:00,
2013-07-16 20:14:00,75.3,68.7,30.23,WNW,295,1.0,1.0,80,0.00,,---,0.00,VWS V14.01,2013-07-17 00:14:00,
2013-07-16 20:19:00,75.1,68.5,30.23,North,359,0.0,1.0,80,0.00,,---,0.00,VWS V14.01,2013-07-17 00:19:00,
2013-07-16 20:24:00,75.1,68.5,30.22,NNW,346,0.0,2.0,80,0.00,,---,0.00,VWS V14.01,2013-07-17 00:24:00,
2013-07-16 20:29:00,75.1,68.5,30.22,NNW,345,0.0,0.0,80,0.00,,---,0.00,VWS V14.01,2013-07-17 00:29:00,
2013-07-16 20:34:00,75.1,68.9,30.23,NNW,346,0.0,0.0,81,0.00,,---,0.00,VWS V14.01,2013-07-17 00:34:00,
2013-07-16 20:39:00,74.9,68.7,30.23,NNW,346,0.0,1.0,81,0.00,,---,0.00,VWS V14.01,2013-07-17 00:39:00,
2013-07-16 20:44:00,74.7,68.5,30.23,NNW,345,0.0,1.0,81,0.00,,---,0.00,VWS V14.01,2013-07-17 00:44:00,
2013-07-16 20:49:00,74.5,68.7,30.23,NNW,345,0.0,1.0,82,0.00,,---,0.00,VWS V14.01,2013-07-17 00:49:00,
2013-07-16 20:54:00,74.2,68.4,30.23,NNW,328,1.0,1.0,82,0.00,,---,0.00,VWS V14.01,2013-07-17 00:54:00,
2013-07-16 20:59:00,74.0,68.5,30.23,NNW,335,0.0,1.0,83,0.00,,---,0.00,VWS V14.01,2013-07-17 00:59:00,
2013-07-16 21:04:00,73.8,68.3,30.23,NNW,333,0.0,1.0,83,0.00,,---,0.00,VWS V14.01,2013-07-17 01:04:00,
2013-07-16 21:10:00,73.6,68.5,30.22,NNW,333,0.0,1.0,84,0.00,,---,0.00,VWS V14.01,2013-07-17 01:10:00,
2013-07-16 21:15:00,73.4,68.3,30.23,NNW,333,0.0,1.0,84,0.00,,---,0.00,VWS V14.01,2013-07-17 01:15:00,
2013-07-16 21:20:00,73.1,68.3,30.22,NNW,333,0.0,1.0,85,0.00,,---,0.00,VWS V14.01,2013-07-17 01:20:00,
2013-07-16 21:25:00,72.8,68.4,30.22,NW,307,1.0,1.0,86,0.00,,---,0.00,VWS V14.01,2013-07-17 01:25:00,
2013-07-16 21:30:00,72.4,68.0,30.22,NW,306,0.0,0.0,86,0.00,,---,0.00,VWS V14.01,2013-07-17 01:30:00,
2013-07-16 21:35:00,72.2,68.1,30.22,NW,307,0.0,0.0,87,0.00,,---,0.00,VWS V14.01,2013-07-17 01:35:00,
2013-07-16 21:40:00,72.0,68.3,30.22,NW,306,0.0,1.0,88,0.00,,---,0.00,VWS V14.01,2013-07-17 01:40:00,
2013-07-16 21:45:00,71.7,68.0,30.22,NW,306,0.0,1.0,88,0.00,,---,0.00,VWS V14.01,2013-07-17 01:45:00,
2013-07-16 21:50:00,71.4,68.0,30.22,NW,307,0.0,1.0,89,0.00,,---,0.00,VWS V14.01,2013-07-17 01:50:00,
2013-07-16 21:55:00,71.2,68.1,30.23,NW,307,0.0,1.0,90,0.00,,---,0.00,VWS V14.01,2013-07-17 01:55:00,
2013-07-16 22:00:00,71.1,68.0,30.23,NW,306,0.0,0.0,90,0.00,,---,0.00,VWS V14.01,2013-07-17 02:00:00,
2013-07-16 22:05:00,70.9,68.2,30.23,NW,306,0.0,0.0,91,0.00,,---,0.00,VWS V14.01,2013-07-17 02:05:00,
2013-07-16 22:10:00,70.8,68.1,30.23,NW,306,0.0,0.0,91,0.00,,---,0.00,VWS V14.01,2013-07-17 02:10:00,
2013-07-16 22:15:00,70.8,68.1,30.23,NW,306,0.0,0.0,91,0.00,,---,0.00,VWS V14.01,2013-07-17 02:15:00,
2013-07-16 22:20:00,70.6,68.2,30.23,NW,307,0.0,0.0,92,0.00,,---,0.00,VWS V14.01,2013-07-17 02:20:00,
2013-07-16 22:25:00,70.5,68.1,30.23,NW,307,0.0,0.0,92,0.00,,---,0.00,VWS V14.01,2013-07-17 02:25:00,
2013-07-16 22:30:00,70.4,68.0,30.22,NW,306,0.0,0.0,92,0.00,,---,0.00,VWS V14.01,2013-07-17 02:30:00,
2013-07-16 22:35:00,70.2,67.8,30.23,NW,307,0.0,0.0,92,0.00,,---,0.00,VWS V14.01,2013-07-17 02:35:00,
2013-07-16 22:40:00,70.1,67.7,30.23,NW,307,0.0,0.0,92,0.00,,---,0.00,VWS V14.01,2013-07-17 02:40:00,
2013-07-16 22:45:00,70.0,67.9,30.22,NW,306,0.0,0.0,93,0.00,,---,0.00,VWS V14.01,2013-07-17 02:45:00,
2013-07-16 22:50:00,70.1,68.0,30.23,NW,306,0.0,0.0,93,0.00,,---,0.00,VWS V14.01,2013-07-17 02:50:00,
2013-07-16 22:55:00,69.9,67.8,30.22,NW,307,0.0,0.0,93,0.00,,---,0.00,VWS V14.01,2013-07-17 02:55:00,
2013-07-16 23:00:00,69.8,67.7,30.22,NW,307,0.0,0.0,93,0.00,,---,0.00,VWS V14.01,2013-07-17 03:00:00,
2013-07-16 23:05:00,69.7,67.9,30.23,NW,307,0.0,0.0,94,0.00,,---,0.00,VWS V14.01,2013-07-17 03:05:00,
2013-07-16 23:10:00,69.7,67.9,30.23,NW,307,0.0,0.0,94,0.00,,---,0.00,VWS V14.01,2013-07-17 03:10:00,
2013-07-16 23:15:00,69.7,67.9,30.23,NW,306,0.0,0.0,94,0.00,,---,0.00,VWS V14.01,2013-07-17 03:15:00,
2013-07-16 23:20:00,69.6,67.8,30.24,NW,307,0.0,0.0,94,0.00,,---,0.00,VWS V14.01,2013-07-17 03:20:00,
2013-07-16 23:25:00,69.5,67.7,30.24,NW,306,0.0,0.0,94,0.00,,---,0.00,VWS V14.01,2013-07-17 03:25:00,
2013-07-16 23:30:00,69.4,67.9,30.24,NW,306,0.0,0.0,95,0.00,,---,0.00,VWS V14.01,2013-07-17 03:30:00,
2013-07-16 23:35:00,69.3,67.8,30.24,NW,306,0.0,0.0,95,0.00,,---,0.00,VWS V14.01,2013-07-17 03:35:00,
2013-07-16 23:40:00,69.5,68.0,30.24,NNW,346,0.0,2.0,95,0.00,,---,0.00,VWS V14.01,2013-07-17 03:40:00,
2013-07-16 23:45:00,69.8,68.3,30.24,NW,316,0.0,2.0,95,0.00,,---,0.00,VWS V14.01,2013-07-17 03:45:00,
2013-07-16 23:50:00,70.1,68.6,30.24,NW,311,1.0,2.0,95,0.00,,---,0.00,VWS V14.01,2013-07-17 03:50:00,
2013-07-16 23:55:00,70.3,68.5,30.23,NW,326,0.0,3.0,94,0.00,,---,0.00,VWS V14.01,2013-07-17 03:55:00,